ADDS METAR Data

Data at: 1029 UTC 20 Jul 2018

METAR for:KLAX (Los Angeles Intl, CA, US)
Text:KLAX 200953Z 26006KT 10SM FEW010 FEW120 SCT240 21/18 A2993 RMK AO2 SLP132 T02060178
Temperature: 20.6°C ( 69°F)
Dewpoint: 17.8°C ( 64°F) [RH = 84%]
Pressure (altimeter):29.93 inches Hg (1013.6 mb) [Sea level pressure: 1013.2 mb]
Winds:from the W (260 degrees) at 7 MPH (6 knots; 3.1 m/s)
Visibility:10 or more sm (16+ km)
Ceiling:at least 12,000 feet AGL
Clouds: few clouds at 1000 feet AGL, few clouds at 12000 feet AGL, scattered clouds at 24000 feet AGL